Crescent Beach, South Carolina
Current Conditions -  °F | °C
As of 6:53 AM on Thursday 23 Oct 2014 (Local Time) from KCRE Reporting Station
Clear Clear  
Wind Chill: 43°   Ceiling: Unl
Heat Index: 46°   Visibility: 10mi
Dew Point: 42°   Wind: 6mph
Humidity: 86%   Direction: 320°NW
Pressure: 30.03"   Gusts: NA
Location:  33.8371°N, 78.6471°W
Report Text: KCRE 231053Z 32005KT 10SM CLR 08/06 A3003 RMK AO1 SLP168 T00780056
Loading
Personal Weather Stations






























Interactive Weather Map
Tropical Storm Tracking
New forecast layout! Learn more

10-Day Weather Forecast

Advertisements
Track Severe Weather on mobile